createdAt,value
2018-06-17T00:00:53.273Z,3.10
2018-06-17T00:03:21.525Z,3.20
2018-06-17T00:05:49.799Z,3.30
2018-06-17T00:08:18.072Z,2.80
2018-06-17T00:10:46.368Z,2.80
2018-06-17T00:13:14.657Z,3.23
2018-06-17T00:15:42.959Z,3.13
2018-06-17T00:18:11.261Z,3.33
2018-06-17T00:20:39.580Z,3.50
2018-06-17T00:23:07.876Z,3.27
2018-06-17T00:25:36.173Z,2.60
2018-06-17T00:28:04.465Z,2.73
2018-06-17T00:30:32.790Z,2.73
2018-06-17T00:33:01.056Z,3.47
2018-06-17T00:35:29.355Z,3.00
2018-06-17T00:37:57.655Z,3.37
2018-06-17T00:40:25.952Z,3.20
2018-06-17T00:42:54.223Z,2.23
2018-06-17T00:45:22.517Z,3.07
2018-06-17T00:47:50.768Z,3.10
2018-06-17T00:50:19.026Z,3.00
2018-06-17T00:52:47.286Z,3.07
2018-06-17T00:55:15.575Z,3.20
2018-06-17T00:57:49.845Z,3.13
2018-06-17T01:00:18.694Z,3.60
2018-06-17T01:02:46.735Z,3.53
2018-06-17T01:05:16.347Z,3.00
2018-06-17T01:07:44.611Z,3.07
2018-06-17T01:10:12.929Z,3.13
2018-06-17T01:12:40.914Z,3.93
2018-06-17T01:15:09.217Z,3.10
2018-06-17T01:17:37.959Z,3.07
2018-06-17T01:20:06.708Z,3.13
2018-06-17T01:22:35.152Z,2.87
2018-06-17T01:25:03.451Z,2.60
2018-06-17T01:27:31.757Z,3.20
2018-06-17T01:30:00.108Z,3.07
2018-06-17T01:32:28.439Z,3.13
2018-06-17T01:34:56.680Z,2.87
2018-06-17T01:37:24.966Z,3.40
2018-06-17T01:39:53.287Z,2.90
2018-06-17T01:42:21.316Z,3.50
2018-06-17T01:44:49.628Z,3.30
2018-06-17T01:47:17.599Z,2.83
2018-06-17T01:49:45.876Z,3.00
2018-06-17T01:52:14.148Z,3.50
2018-06-17T01:54:42.206Z,3.20
2018-06-17T01:57:10.531Z,3.20
2018-06-17T01:59:38.903Z,2.80
2018-06-17T02:02:07.221Z,3.10
2018-06-17T02:04:40.764Z,3.00
2018-06-17T02:07:14.404Z,2.80
2018-06-17T02:09:48.172Z,2.77
2018-06-17T02:12:17.767Z,3.20
2018-06-17T02:14:51.268Z,2.73
2018-06-17T02:17:20.799Z,2.97
2018-06-17T02:19:49.123Z,2.70
2018-06-17T02:22:17.372Z,2.87
2018-06-17T02:24:45.705Z,2.63
2018-06-17T02:27:13.939Z,3.10
2018-06-17T02:29:42.262Z,2.97
2018-06-17T02:32:10.608Z,2.57
2018-06-17T02:34:38.973Z,2.53
2018-06-17T02:37:07.944Z,2.53
2018-06-17T02:39:36.335Z,2.73
2018-06-17T02:42:04.861Z,2.73
2018-06-17T02:44:32.864Z,2.30
2018-06-17T02:47:06.429Z,3.20
2018-06-17T02:49:36.515Z,2.37
2018-06-17T02:52:10.646Z,2.90
2018-06-17T02:54:41.881Z,2.23
2018-06-17T02:57:12.367Z,2.87
2018-06-17T02:59:41.789Z,2.80
2018-06-17T03:02:10.288Z,2.63
2018-06-17T03:04:38.598Z,2.90
2018-06-17T03:07:06.621Z,2.30
2018-06-17T03:09:34.956Z,2.73
2018-06-17T03:12:02.969Z,2.80
2018-06-17T03:14:31.349Z,2.33
2018-06-17T03:16:59.684Z,2.50
2018-06-17T03:19:27.979Z,2.40
2018-06-17T03:21:56.282Z,3.27
2018-06-17T03:24:29.865Z,3.37
2018-06-17T03:27:03.630Z,2.80
2018-06-17T03:29:37.325Z,2.70
2018-06-17T03:32:10.887Z,2.80
2018-06-17T03:34:39.216Z,2.67
2018-06-17T03:37:07.498Z,3.10
2018-06-17T03:39:35.727Z,3.20
2018-06-17T03:42:04.028Z,3.07
2018-06-17T03:44:32.329Z,2.80
2018-06-17T03:47:00.597Z,2.90
2018-06-17T03:49:29.711Z,2.70
2018-06-17T03:51:58.012Z,2.80
2018-06-17T03:54:26.301Z,2.77
2018-06-17T03:56:54.583Z,2.60
2018-06-17T03:59:24.595Z,2.53
2018-06-17T04:01:52.649Z,2.37
2018-06-17T04:04:22.691Z,2.93
2018-06-17T04:06:51.007Z,2.80
2018-06-17T04:09:19.311Z,2.40
2018-06-17T04:11:47.529Z,2.40
2018-06-17T04:14:15.831Z,2.53
2018-06-17T04:16:43.844Z,2.80
2018-06-17T04:19:12.076Z,2.57
2018-06-17T04:21:40.099Z,2.97
2018-06-17T04:24:08.379Z,2.40
2018-06-17T04:26:36.621Z,2.33
2018-06-17T04:29:04.839Z,3.03
2018-06-17T04:31:33.118Z,2.70
2018-06-17T04:34:01.397Z,2.57
2018-06-17T04:36:29.698Z,2.53
2018-06-17T04:38:57.926Z,2.30
2018-06-17T04:41:26.289Z,2.60
2018-06-17T04:43:54.540Z,2.53
2018-06-17T04:46:22.827Z,3.03
2018-06-17T04:48:51.132Z,2.20
2018-06-17T04:51:19.436Z,2.30
2018-06-17T04:53:47.704Z,2.10
2018-06-17T04:56:16.006Z,2.60
2018-06-17T04:58:44.348Z,2.43
2018-06-17T05:01:12.672Z,2.37
2018-06-17T05:03:40.689Z,2.70
2018-06-17T05:06:08.993Z,2.50
2018-06-17T05:08:37.270Z,1.90
2018-06-17T05:11:05.577Z,2.13
2018-06-17T05:13:33.620Z,2.23
2018-06-17T05:16:01.921Z,2.20
2018-06-17T05:18:29.923Z,2.03
2018-06-17T05:20:58.220Z,2.40
2018-06-17T05:23:26.456Z,2.47
2018-06-17T05:25:54.765Z,1.93
2018-06-17T05:28:23.046Z,1.93
2018-06-17T05:30:51.367Z,1.90
2018-06-17T05:33:20.492Z,2.10
2018-06-17T05:35:48.804Z,2.17
2018-06-17T05:38:17.089Z,1.97
2018-06-17T05:40:45.412Z,1.93
2018-06-17T05:43:13.427Z,2.20
2018-06-17T05:45:41.733Z,2.00
2018-06-17T05:48:10.029Z,1.87
2018-06-17T05:50:38.341Z,1.53
2018-06-17T05:53:06.792Z,1.70
2018-06-17T05:55:34.848Z,1.73
2018-06-17T05:58:03.102Z,2.00
2018-06-17T06:00:31.387Z,1.97
2018-06-17T06:02:59.644Z,1.70
2018-06-17T06:05:27.904Z,2.00
2018-06-17T06:07:56.176Z,2.07
2018-06-17T06:10:24.472Z,2.03
2018-06-17T06:12:52.792Z,1.77
2018-06-17T06:15:21.131Z,1.87
2018-06-17T06:17:49.463Z,1.57
2018-06-17T06:20:17.847Z,2.00
2018-06-17T06:22:46.110Z,1.90
2018-06-17T06:25:14.424Z,2.07
2018-06-17T06:27:42.722Z,1.80
2018-06-17T06:30:10.981Z,1.90
2018-06-17T06:32:39.244Z,1.70
2018-06-17T06:35:07.553Z,1.97
2018-06-17T06:37:35.981Z,1.77
2018-06-17T06:40:04.309Z,1.60
2018-06-17T06:42:32.569Z,1.63
2018-06-17T06:45:00.861Z,1.90
2018-06-17T06:47:29.200Z,2.07
2018-06-17T06:49:57.571Z,1.97
2018-06-17T06:52:25.847Z,2.00
2018-06-17T06:54:54.132Z,2.03
2018-06-17T06:57:22.453Z,1.60
2018-06-17T06:59:50.842Z,1.37
2018-06-17T07:02:30.470Z,1.40
2018-06-17T07:05:10.116Z,1.70
2018-06-17T07:07:49.765Z,1.70
2018-06-17T07:10:25.162Z,1.30
2018-06-17T07:12:53.700Z,1.80
2018-06-17T07:15:34.039Z,1.77
2018-06-17T07:18:13.712Z,1.60
2018-06-17T07:20:42.255Z,1.43
2018-06-17T07:23:10.632Z,1.57
2018-06-17T07:26:53.245Z,1.50
2018-06-17T07:29:34.516Z,1.10
2018-06-17T07:32:02.772Z,1.50
2018-06-17T07:34:30.764Z,1.30
2018-06-17T07:36:59.176Z,1.40
2018-06-17T07:41:36.257Z,1.50
2018-06-17T07:44:04.581Z,1.50
2018-06-17T07:46:32.953Z,1.40
2018-06-17T07:49:42.476Z,1.40
2018-06-17T07:52:23.249Z,1.10
2018-06-17T07:54:51.575Z,1.50
2018-06-17T07:57:20.951Z,1.23
2018-06-17T07:59:49.305Z,1.27
2018-06-17T08:02:18.014Z,1.50
2018-06-17T08:04:46.353Z,2.23
2018-06-17T08:07:14.640Z,2.80
2018-06-17T08:09:42.970Z,1.50
2018-06-17T08:12:11.922Z,1.40
2018-06-17T08:14:40.415Z,1.77
2018-06-17T08:17:08.720Z,1.40
2018-06-17T08:19:36.868Z,1.40
2018-06-17T08:22:05.272Z,2.47
2018-06-17T08:24:34.164Z,1.60
2018-06-17T08:27:02.419Z,1.80
2018-06-17T08:29:31.427Z,1.90
2018-06-17T08:31:59.791Z,1.73
2018-06-17T08:34:28.163Z,1.60
2018-06-17T08:36:56.472Z,1.80
2018-06-17T08:39:25.336Z,1.87
2018-06-17T08:41:53.679Z,1.70
2018-06-17T08:44:22.699Z,1.97
2018-06-17T08:46:51.528Z,1.70
2018-06-17T08:49:20.492Z,1.47
2018-06-17T08:51:48.793Z,1.83
2018-06-17T08:54:16.963Z,1.60
2018-06-17T08:56:45.255Z,1.53
2018-06-17T08:59:13.588Z,2.00
2018-06-17T09:01:41.899Z,1.90
2018-06-17T09:04:10.211Z,1.73
2018-06-17T09:06:38.501Z,1.57
2018-06-17T09:09:08.876Z,1.47
2018-06-17T09:11:37.144Z,1.50
2018-06-17T09:14:05.485Z,1.50
2018-06-17T09:16:33.759Z,1.60
2018-06-17T09:19:02.094Z,1.90
2018-06-17T09:21:30.350Z,1.73
2018-06-17T09:23:58.656Z,1.87
2018-06-17T09:26:26.684Z,1.70
2018-06-17T09:28:55.036Z,1.47
2018-06-17T09:31:23.297Z,1.97
2018-06-17T09:33:51.560Z,1.80
2018-06-17T09:36:19.784Z,1.60
2018-06-17T09:38:48.155Z,1.80
2018-06-17T09:41:16.458Z,1.60
2018-06-17T09:43:44.701Z,1.90
2018-06-17T09:46:13.011Z,1.70
2018-06-17T09:48:41.300Z,2.03
2018-06-17T09:51:09.591Z,1.60
2018-06-17T09:53:37.915Z,1.43
2018-06-17T09:56:06.383Z,1.90
2018-06-17T09:58:34.843Z,1.70
2018-06-17T10:01:03.787Z,1.40
2018-06-17T10:03:32.068Z,1.37
2018-06-17T10:06:00.327Z,1.60
2018-06-17T10:08:28.580Z,1.60
2018-06-17T10:11:01.057Z,1.70
2018-06-17T10:13:30.767Z,1.50
2018-06-17T10:15:59.116Z,1.70
2018-06-17T10:18:27.762Z,1.40
2018-06-17T10:20:56.035Z,1.60
2018-06-17T10:24:21.804Z,1.50
2018-06-17T10:26:50.121Z,1.30
2018-06-17T10:29:37.238Z,1.40
2018-06-17T10:32:07.220Z,1.20
2018-06-17T10:34:35.500Z,1.40
2018-06-17T10:37:03.806Z,1.50
2018-06-17T10:39:32.052Z,1.47
2018-06-17T10:42:00.347Z,1.40
2018-06-17T10:44:28.613Z,1.40
2018-06-17T10:46:56.894Z,1.17
2018-06-17T10:49:25.215Z,1.57
2018-06-17T10:51:53.540Z,1.60
2018-06-17T10:54:21.796Z,1.97
2018-06-17T10:56:50.115Z,1.60
2018-06-17T10:59:18.922Z,1.80
2018-06-17T11:01:47.011Z,1.30
2018-06-17T11:04:15.336Z,1.50
2018-06-17T11:06:43.640Z,1.97
2018-06-17T11:09:11.916Z,1.70
2018-06-17T11:11:40.181Z,1.77
2018-06-17T11:14:08.478Z,1.43
2018-06-17T11:16:36.763Z,1.70
2018-06-17T11:19:05.092Z,2.07
2018-06-17T11:21:33.466Z,1.60
2018-06-17T11:24:01.580Z,1.40
2018-06-17T11:26:29.943Z,1.50
2018-06-17T11:28:58.236Z,1.77
2018-06-17T11:31:26.519Z,1.70
2018-06-17T11:33:54.844Z,1.70
2018-06-17T11:36:22.880Z,1.67
2018-06-17T11:38:51.205Z,1.60
2018-06-17T11:41:19.457Z,1.43
2018-06-17T11:43:47.700Z,1.53
2018-06-17T11:46:15.996Z,1.50
2018-06-17T11:48:44.389Z,1.70
2018-06-17T11:51:12.688Z,1.67
2018-06-17T11:53:41.070Z,1.23
2018-06-17T11:56:09.345Z,1.73
2018-06-17T11:58:37.628Z,1.30
2018-06-17T12:01:05.918Z,1.60
2018-06-17T12:03:34.170Z,2.00
2018-06-17T12:06:02.536Z,1.50
2018-06-17T12:09:33.638Z,1.57
2018-06-17T12:12:01.966Z,1.40
2018-06-17T12:14:30.384Z,1.40
2018-06-17T12:16:58.708Z,1.30
2018-06-17T12:19:26.694Z,1.33
2018-06-17T12:21:54.981Z,1.30
2018-06-17T12:24:23.316Z,2.00
2018-06-17T12:26:51.602Z,1.53
2018-06-17T12:29:20.759Z,1.37
2018-06-17T12:31:49.020Z,1.50
2018-06-17T12:34:18.336Z,1.47
2018-06-17T12:36:46.696Z,1.60
2018-06-17T12:39:14.974Z,1.30
2018-06-17T12:41:43.250Z,1.47
2018-06-17T12:44:11.528Z,1.23
2018-06-17T12:46:39.928Z,1.10
2018-06-17T12:49:08.285Z,1.20
2018-06-17T12:51:36.557Z,1.27
2018-06-17T12:54:04.939Z,1.77
2018-06-17T12:56:33.191Z,1.20
2018-06-17T12:59:01.427Z,1.50
2018-06-17T13:01:29.661Z,1.57
2018-06-17T13:03:57.995Z,1.50
2018-06-17T13:06:26.278Z,1.27
2018-06-17T13:08:54.603Z,1.33
2018-06-17T13:11:22.891Z,1.40
2018-06-17T13:13:51.156Z,1.27
2018-06-17T13:16:19.497Z,1.50
2018-06-17T13:18:47.878Z,1.30
2018-06-17T13:21:15.859Z,1.33
2018-06-17T13:23:44.140Z,1.37
2018-06-17T13:26:12.471Z,1.40
2018-06-17T13:28:40.808Z,1.27
2018-06-17T13:31:09.071Z,1.27
2018-06-17T13:36:12.033Z,0.93
2018-06-17T13:38:40.334Z,1.10
2018-06-17T13:41:08.318Z,1.17
2018-06-17T13:43:36.323Z,1.57
2018-06-17T13:46:04.644Z,1.10
2018-06-17T13:48:32.944Z,1.30
2018-06-17T13:51:01.273Z,1.40
2018-06-17T13:53:29.517Z,1.10
2018-06-17T13:55:57.819Z,1.27
2018-06-17T13:58:26.103Z,1.10
2018-06-17T14:00:54.392Z,1.00
2018-06-17T14:03:22.700Z,1.10
2018-06-17T14:05:50.997Z,1.13
2018-06-17T14:08:19.356Z,1.10
2018-06-17T14:10:47.349Z,0.80
2018-06-17T14:13:15.623Z,1.73
2018-06-17T14:15:43.952Z,1.00
2018-06-17T14:18:12.526Z,1.57
2018-06-17T14:20:40.795Z,1.30
2018-06-17T14:23:09.043Z,1.33
2018-06-17T14:25:37.449Z,0.90
2018-06-17T14:28:05.763Z,1.33
2018-06-17T14:30:33.784Z,1.07
2018-06-17T14:33:02.086Z,1.20
2018-06-17T14:35:30.444Z,1.10
2018-06-17T14:37:59.037Z,1.23
2018-06-17T14:40:27.368Z,1.20
2018-06-17T14:43:00.882Z,1.37
2018-06-17T14:45:34.593Z,1.13
2018-06-17T14:48:08.322Z,1.50
2018-06-17T14:50:41.906Z,1.20
2018-06-17T14:53:10.208Z,1.10
2018-06-17T14:55:38.485Z,1.30
2018-06-17T14:58:06.783Z,1.60
2018-06-17T15:00:35.072Z,1.23
2018-06-17T15:03:03.360Z,1.10
2018-06-17T15:05:31.636Z,1.00
2018-06-17T15:07:59.962Z,1.20
2018-06-17T15:10:28.201Z,1.10
2018-06-17T15:12:56.461Z,1.20
2018-06-17T15:15:24.741Z,1.00
2018-06-17T15:17:53.056Z,1.47
2018-06-17T15:20:21.323Z,1.00
2018-06-17T15:23:15.099Z,1.00
2018-06-17T15:25:43.420Z,1.00
2018-06-17T15:28:11.470Z,1.20
2018-06-17T15:30:39.764Z,0.93
2018-06-17T15:35:35.581Z,1.17
2018-06-17T15:40:55.833Z,1.03
2018-06-17T15:43:24.296Z,1.03
2018-06-17T15:45:52.554Z,0.80
2018-06-17T15:48:20.877Z,1.00
2018-06-17T15:50:49.182Z,1.00
2018-06-17T15:53:17.495Z,1.10
2018-06-17T15:55:45.834Z,1.13
2018-06-17T15:58:14.344Z,0.97
2018-06-17T16:00:42.747Z,1.10
2018-06-17T16:03:11.061Z,1.40
2018-06-17T16:05:39.364Z,1.10
2018-06-17T16:08:07.665Z,1.20
2018-06-17T16:10:35.984Z,1.20
2018-06-17T16:13:09.404Z,1.10
2018-06-17T16:15:43.151Z,1.03
2018-06-17T16:18:16.713Z,0.87
2018-06-17T16:20:50.488Z,1.00
2018-06-17T16:23:18.875Z,1.13
2018-06-17T16:25:47.230Z,1.20
2018-06-17T16:28:15.562Z,1.20
2018-06-17T16:30:43.836Z,0.93
2018-06-17T16:33:12.117Z,1.13
2018-06-17T16:35:40.444Z,1.10
2018-06-17T16:38:08.715Z,1.10
2018-06-17T16:40:37.000Z,1.10
2018-06-17T16:43:05.282Z,1.10
2018-06-17T16:45:33.556Z,1.27
2018-06-17T16:48:01.888Z,1.10
2018-06-17T16:50:30.170Z,1.00
2018-06-17T16:53:03.908Z,0.83
2018-06-17T16:55:37.679Z,0.97
2018-06-17T16:58:11.315Z,1.23
2018-06-17T17:00:39.571Z,0.60
2018-06-17T17:03:08.038Z,1.10
2018-06-17T17:05:36.336Z,1.20
2018-06-17T17:08:04.625Z,1.10
2018-06-17T17:10:33.321Z,0.87
2018-06-17T17:13:01.616Z,1.20
2018-06-17T17:15:29.909Z,1.00
2018-06-17T17:18:00.578Z,0.87
2018-06-17T17:20:28.873Z,1.30
2018-06-17T17:22:57.154Z,1.50
2018-06-17T17:25:25.479Z,1.20
2018-06-17T17:27:53.502Z,1.10
2018-06-17T17:30:21.793Z,1.27
2018-06-17T17:32:55.535Z,1.40
2018-06-17T17:36:32.173Z,1.00
2018-06-17T17:39:05.779Z,1.20
2018-06-17T17:41:34.072Z,1.00
2018-06-17T17:44:02.398Z,1.10
2018-06-17T17:46:36.178Z,1.20
2018-06-17T17:49:04.517Z,1.10
2018-06-17T17:51:32.757Z,1.13
2018-06-17T17:54:01.159Z,0.83
2018-06-17T17:56:29.371Z,0.90
2018-06-17T17:58:57.709Z,1.03
2018-06-17T18:01:25.951Z,1.20
2018-06-17T18:03:53.982Z,1.07
2018-06-17T18:06:22.259Z,1.00
2018-06-17T18:08:50.508Z,1.30
2018-06-17T18:11:18.816Z,1.30
2018-06-17T18:13:47.069Z,1.40
2018-06-17T18:16:15.387Z,1.00
2018-06-17T18:18:43.697Z,1.30
2018-06-17T18:21:12.037Z,1.10
2018-06-17T18:23:40.326Z,0.90
2018-06-17T18:30:14.172Z,1.10
2018-06-17T18:33:45.543Z,1.10
2018-06-17T18:36:15.192Z,1.10
2018-06-17T18:38:44.838Z,1.10
2018-06-17T18:41:14.207Z,1.50
2018-06-17T18:43:42.596Z,1.33
2018-06-17T18:46:11.785Z,1.03
2018-06-17T18:48:40.085Z,1.43
2018-06-17T18:51:08.405Z,1.20
2018-06-17T18:53:36.683Z,1.33
2018-06-17T18:56:04.943Z,0.90
2018-06-17T18:58:32.925Z,1.47
2018-06-17T19:01:01.219Z,1.47
2018-06-17T19:03:30.075Z,1.00
2018-06-17T19:05:58.336Z,1.10
2018-06-17T19:08:31.956Z,1.50
2018-06-17T19:11:05.712Z,0.90
2018-06-17T19:13:39.444Z,1.37
2018-06-17T19:16:15.077Z,1.30
2018-06-17T19:18:43.368Z,1.20
2018-06-17T19:21:11.668Z,1.00
2018-06-17T19:23:39.673Z,1.10
2018-06-17T19:26:08.034Z,0.87
2018-06-17T19:28:36.404Z,1.10
2018-06-17T19:31:04.753Z,0.93
2018-06-17T19:33:33.088Z,1.20
2018-06-17T19:36:01.370Z,1.57
2018-06-17T19:38:29.656Z,1.20
2018-06-17T19:40:58.047Z,1.00
2018-06-17T19:43:26.036Z,0.90
2018-06-17T19:45:54.385Z,1.20
2018-06-17T19:48:22.700Z,1.30
2018-06-17T19:50:56.540Z,1.23
2018-06-17T19:53:30.140Z,1.27
2018-06-17T19:56:03.770Z,1.23
2018-06-17T19:58:37.419Z,1.17
2018-06-17T20:01:06.127Z,0.97
2018-06-17T20:03:34.425Z,1.27
2018-06-17T20:06:02.754Z,1.53
2018-06-17T20:08:31.051Z,1.10
2018-06-17T20:10:59.102Z,1.50
2018-06-17T20:13:27.440Z,1.40
2018-06-17T20:15:55.711Z,1.10
2018-06-17T20:18:24.001Z,1.40
2018-06-17T20:20:52.308Z,1.10
2018-06-17T20:23:22.226Z,1.30
2018-06-17T20:25:50.630Z,1.23
2018-06-17T20:28:18.915Z,1.10
2018-06-17T20:30:47.235Z,1.67
2018-06-17T20:33:20.974Z,1.57
2018-06-17T20:35:54.534Z,1.30
2018-06-17T20:38:28.279Z,1.13
2018-06-17T20:43:05.062Z,1.60
2018-06-17T20:45:33.343Z,1.47
2018-06-17T20:48:01.653Z,1.60
2018-06-17T20:50:29.898Z,1.30
2018-06-17T20:52:58.166Z,1.40
2018-06-17T20:55:26.432Z,1.60
2018-06-17T20:57:54.815Z,1.17
2018-06-17T21:00:23.116Z,1.20
2018-06-17T21:02:51.411Z,1.27
2018-06-17T21:05:19.673Z,1.17
2018-06-17T21:07:47.697Z,1.03
2018-06-17T21:10:16.285Z,1.20
2018-06-17T21:12:44.584Z,1.10
2018-06-17T21:15:18.836Z,1.13
2018-06-17T21:17:48.592Z,1.20
2018-06-17T21:20:22.431Z,1.47
2018-06-17T21:22:56.213Z,1.20
2018-06-17T21:25:29.839Z,1.60
2018-06-17T21:27:59.632Z,1.30
2018-06-17T21:30:27.908Z,1.40
2018-06-17T21:32:56.184Z,1.70
2018-06-17T21:35:24.480Z,1.47
2018-06-17T21:37:52.718Z,1.40
2018-06-17T21:40:21.005Z,1.40
2018-06-17T21:42:49.360Z,1.30
2018-06-17T21:45:17.697Z,1.10
2018-06-17T21:47:45.998Z,1.50
2018-06-17T21:50:14.295Z,1.50
2018-06-17T21:52:42.577Z,1.33
2018-06-17T21:55:10.994Z,1.47
2018-06-17T21:57:39.336Z,1.27
2018-06-17T22:00:08.811Z,1.67
2018-06-17T22:02:41.735Z,1.33
2018-06-17T22:05:10.037Z,1.20
2018-06-17T22:07:43.755Z,1.40
2018-06-17T22:10:17.548Z,1.67
2018-06-17T22:12:51.177Z,1.57
2018-06-17T22:15:25.395Z,1.47
2018-06-17T22:17:54.531Z,1.50
2018-06-17T22:20:22.815Z,1.40
2018-06-17T22:22:51.205Z,1.33
2018-06-17T22:25:19.470Z,1.27
2018-06-17T22:27:47.777Z,1.20
2018-06-17T22:30:16.070Z,1.20
2018-06-17T22:32:44.119Z,1.40
2018-06-17T22:35:12.374Z,1.37
2018-06-17T22:37:40.663Z,1.33
2018-06-17T22:40:09.079Z,1.30
2018-06-17T22:42:37.606Z,1.20
2018-06-17T22:45:06.036Z,1.30
2018-06-17T22:47:41.436Z,1.27
2018-06-17T22:50:10.026Z,1.40
2018-06-17T22:52:50.489Z,1.40
2018-06-17T22:55:18.793Z,1.50
2018-06-17T22:57:52.340Z,1.40
2018-06-17T23:00:26.069Z,1.50
2018-06-17T23:02:59.672Z,1.40
2018-06-17T23:05:33.328Z,1.33
2018-06-17T23:08:06.904Z,1.20
2018-06-17T23:10:35.201Z,1.53
2018-06-17T23:13:03.532Z,1.50
2018-06-17T23:15:31.835Z,1.30
2018-06-17T23:18:00.183Z,1.30
2018-06-17T23:20:28.483Z,1.60
2018-06-17T23:22:56.792Z,1.37
2018-06-17T23:25:25.095Z,1.07
2018-06-17T23:27:53.323Z,1.33
2018-06-17T23:30:21.577Z,1.20
2018-06-17T23:32:49.855Z,1.40
2018-06-17T23:35:18.131Z,1.27
2018-06-17T23:37:46.436Z,1.50
2018-06-17T23:40:14.683Z,1.80
2018-06-17T23:42:42.969Z,1.13
2018-06-17T23:45:11.288Z,1.80
2018-06-17T23:47:44.709Z,1.70
2018-06-17T23:50:18.417Z,1.50
2018-06-17T23:52:52.059Z,1.20
2018-06-17T23:55:25.751Z,1.43
2018-06-17T23:57:54.063Z,1.10
